sensor_id;sensor_type;location;lat;lon;timestamp;temperature;humidity
14555;DHT22;7364;50.870;4.722;2022-12-13T00:01:18;-1.30;99.90
14555;DHT22;7364;50.870;4.722;2022-12-13T00:03:46;-1.50;99.90
14555;DHT22;7364;50.870;4.722;2022-12-13T00:06:13;-1.80;99.90
14555;DHT22;7364;50.870;4.722;2022-12-13T00:08:42;-1.90;99.90
14555;DHT22;7364;50.870;4.722;2022-12-13T00:11:11;-1.90;99.90
14555;DHT22;7364;50.870;4.722;2022-12-13T00:13:39;-1.70;99.90
14555;DHT22;7364;50.870;4.722;2022-12-13T00:16:09;-1.40;99.90
14555;DHT22;7364;50.870;4.722;2022-12-13T00:18:37;-1.40;99.90
14555;DHT22;7364;50.870;4.722;2022-12-13T00:21:05;-1.30;99.90
14555;DHT22;7364;50.870;4.722;2022-12-13T00:23:33;-1.30;99.90
14555;DHT22;7364;50.870;4.722;2022-12-13T00:26:03;-1.30;99.90
14555;DHT22;7364;50.870;4.722;2022-12-13T00:28:31;-1.30;99.90
14555;DHT22;7364;50.870;4.722;2022-12-13T00:30:58;-1.50;99.90
14555;DHT22;7364;50.870;4.722;2022-12-13T00:33:25;-1.40;99.90
14555;DHT22;7364;50.870;4.722;2022-12-13T00:35:53;-1.30;99.90
14555;DHT22;7364;50.870;4.722;2022-12-13T00:38:21;-1.30;99.90
14555;DHT22;7364;50.870;4.722;2022-12-13T00:40:48;-1.30;99.90
14555;DHT22;7364;50.870;4.722;2022-12-13T00:43:17;-1.30;99.90
14555;DHT22;7364;50.870;4.722;2022-12-13T00:45:45;-1.50;99.90
14555;DHT22;7364;50.870;4.722;2022-12-13T00:48:12;-1.80;99.90
14555;DHT22;7364;50.870;4.722;2022-12-13T00:50:39;-2.00;99.90
14555;DHT22;7364;50.870;4.722;2022-12-13T00:53:06;-2.20;99.90
14555;DHT22;7364;50.870;4.722;2022-12-13T00:55:33;-2.30;99.90
14555;DHT22;7364;50.870;4.722;2022-12-13T00:58:00;-2.40;99.90
14555;DHT22;7364;50.870;4.722;2022-12-13T01:00:29;-2.50;99.90
14555;DHT22;7364;50.870;4.722;2022-12-13T01:02:56;-2.50;99.90
14555;DHT22;7364;50.870;4.722;2022-12-13T01:05:23;-2.50;99.90
14555;DHT22;7364;50.870;4.722;2022-12-13T01:07:50;-2.20;99.90
14555;DHT22;7364;50.870;4.722;2022-12-13T01:10:17;-1.90;99.90
14555;DHT22;7364;50.870;4.722;2022-12-13T01:12:45;-1.70;99.90
14555;DHT22;7364;50.870;4.722;2022-12-13T01:15:12;-1.60;99.90
14555;DHT22;7364;50.870;4.722;2022-12-13T01:17:41;-1.50;99.90
14555;DHT22;7364;50.870;4.722;2022-12-13T01:20:10;-1.40;99.90
14555;DHT22;7364;50.870;4.722;2022-12-13T01:22:37;-1.50;99.90
14555;DHT22;7364;50.870;4.722;2022-12-13T01:25:04;-1.60;99.90
14555;DHT22;7364;50.870;4.722;2022-12-13T01:27:32;-1.50;99.90
14555;DHT22;7364;50.870;4.722;2022-12-13T01:29:59;-1.50;99.90
14555;DHT22;7364;50.870;4.722;2022-12-13T01:32:26;-1.40;99.90
14555;DHT22;7364;50.870;4.722;2022-12-13T01:34:55;-1.30;99.90
14555;DHT22;7364;50.870;4.722;2022-12-13T01:37:22;-1.30;99.90
14555;DHT22;7364;50.870;4.722;2022-12-13T01:39:49;-1.30;99.90
14555;DHT22;7364;50.870;4.722;2022-12-13T01:42:16;-1.30;99.90
14555;DHT22;7364;50.870;4.722;2022-12-13T01:47:39;-1.50;99.90
14555;DHT22;7364;50.870;4.722;2022-12-13T01:50:13;-1.50;99.90
14555;DHT22;7364;50.870;4.722;2022-12-13T01:52:42;-1.60;99.90
14555;DHT22;7364;50.870;4.722;2022-12-13T01:55:11;-1.50;99.90
14555;DHT22;7364;50.870;4.722;2022-12-13T01:57:42;-1.50;99.90
14555;DHT22;7364;50.870;4.722;2022-12-13T02:00:11;-1.50;99.90
14555;DHT22;7364;50.870;4.722;2022-12-13T02:02:38;-1.40;99.90
14555;DHT22;7364;50.870;4.722;2022-12-13T02:05:12;-1.40;99.90
14555;DHT22;7364;50.870;4.722;2022-12-13T02:07:42;-1.40;99.90
14555;DHT22;7364;50.870;4.722;2022-12-13T02:10:10;-1.50;99.90
14555;DHT22;7364;50.870;4.722;2022-12-13T02:12:39;-1.50;99.90
14555;DHT22;7364;50.870;4.722;2022-12-13T02:15:10;-1.70;99.90
14555;DHT22;7364;50.870;4.722;2022-12-13T02:18:00;-1.70;99.90
14555;DHT22;7364;50.870;4.722;2022-12-13T02:27:00;-1.70;99.90
14555;DHT22;7364;50.870;4.722;2022-12-13T02:32:42;-1.90;99.90
14555;DHT22;7364;50.870;4.722;2022-12-13T02:35:17;-1.70;99.90
14555;DHT22;7364;50.870;4.722;2022-12-13T02:37:52;-1.60;99.90
14555;DHT22;7364;50.870;4.722;2022-12-13T02:40:26;-1.60;99.90
14555;DHT22;7364;50.870;4.722;2022-12-13T02:42:59;-1.60;99.90
14555;DHT22;7364;50.870;4.722;2022-12-13T02:45:32;-1.60;99.90
14555;DHT22;7364;50.870;4.722;2022-12-13T02:48:04;-1.70;99.90
14555;DHT22;7364;50.870;4.722;2022-12-13T02:50:33;-1.60;99.90
14555;DHT22;7364;50.870;4.722;2022-12-13T02:53:01;-1.70;99.90
14555;DHT22;7364;50.870;4.722;2022-12-13T02:55:30;-1.70;99.90
14555;DHT22;7364;50.870;4.722;2022-12-13T02:58:00;-1.70;99.90
14555;DHT22;7364;50.870;4.722;2022-12-13T03:00:37;-1.70;99.90
14555;DHT22;7364;50.870;4.722;2022-12-13T03:03:22;-1.60;99.90
14555;DHT22;7364;50.870;4.722;2022-12-13T03:05:59;-1.60;99.90
14555;DHT22;7364;50.870;4.722;2022-12-13T03:08:55;-1.70;99.90
14555;DHT22;7364;50.870;4.722;2022-12-13T03:11:25;-1.60;99.90
14555;DHT22;7364;50.870;4.722;2022-12-13T03:14:09;-1.60;99.90
14555;DHT22;7364;50.870;4.722;2022-12-13T03:16:41;-1.60;99.90
14555;DHT22;7364;50.870;4.722;2022-12-13T03:19:11;-1.60;99.90
14555;DHT22;7364;50.870;4.722;2022-12-13T03:21:40;-1.60;99.90
14555;DHT22;7364;50.870;4.722;2022-12-13T03:24:09;-1.60;99.90
14555;DHT22;7364;50.870;4.722;2022-12-13T03:26:36;-1.60;99.90
14555;DHT22;7364;50.870;4.722;2022-12-13T03:29:04;-1.60;99.90
14555;DHT22;7364;50.870;4.722;2022-12-13T03:31:32;-1.60;99.90
14555;DHT22;7364;50.870;4.722;2022-12-13T03:33:59;-1.60;99.90
14555;DHT22;7364;50.870;4.722;2022-12-13T03:36:28;-1.50;99.90
14555;DHT22;7364;50.870;4.722;2022-12-13T03:38:55;-1.50;99.90
14555;DHT22;7364;50.870;4.722;2022-12-13T03:41:25;-1.60;99.90
14555;DHT22;7364;50.870;4.722;2022-12-13T03:43:57;-1.70;99.90
14555;DHT22;7364;50.870;4.722;2022-12-13T03:46:24;-1.70;99.90
14555;DHT22;7364;50.870;4.722;2022-12-13T03:48:51;-1.70;99.90
14555;DHT22;7364;50.870;4.722;2022-12-13T03:51:18;-1.80;99.90
14555;DHT22;7364;50.870;4.722;2022-12-13T03:53:47;-1.70;99.90
14555;DHT22;7364;50.870;4.722;2022-12-13T03:56:14;-1.70;99.90
14555;DHT22;7364;50.870;4.722;2022-12-13T03:58:42;-1.50;99.90
14555;DHT22;7364;50.870;4.722;2022-12-13T04:01:11;-1.60;99.90
14555;DHT22;7364;50.870;4.722;2022-12-13T04:03:40;-1.50;99.90
14555;DHT22;7364;50.870;4.722;2022-12-13T04:06:08;-1.60;99.90
14555;DHT22;7364;50.870;4.722;2022-12-13T04:08:38;-1.50;99.90
14555;DHT22;7364;50.870;4.722;2022-12-13T04:11:07;-1.50;99.90
14555;DHT22;7364;50.870;4.722;2022-12-13T04:13:53;-1.40;99.90
14555;DHT22;7364;50.870;4.722;2022-12-13T04:16:21;-1.40;99.90
14555;DHT22;7364;50.870;4.722;2022-12-13T04:18:48;-1.30;99.90
14555;DHT22;7364;50.870;4.722;2022-12-13T04:21:15;-1.50;99.90
14555;DHT22;7364;50.870;4.722;2022-12-13T04:23:43;-1.50;99.90
14555;DHT22;7364;50.870;4.722;2022-12-13T04:26:12;-1.40;99.90
14555;DHT22;7364;50.870;4.722;2022-12-13T04:28:39;-1.40;99.90
14555;DHT22;7364;50.870;4.722;2022-12-13T04:31:06;-1.30;99.90
14555;DHT22;7364;50.870;4.722;2022-12-13T04:33:34;-1.40;99.90
14555;DHT22;7364;50.870;4.722;2022-12-13T04:36:02;-1.40;99.90
14555;DHT22;7364;50.870;4.722;2022-12-13T04:38:29;-1.40;99.90
14555;DHT22;7364;50.870;4.722;2022-12-13T04:41:05;-1.40;99.90
14555;DHT22;7364;50.870;4.722;2022-12-13T04:43:34;-1.50;99.90
14555;DHT22;7364;50.870;4.722;2022-12-13T04:46:01;-1.50;99.90
14555;DHT22;7364;50.870;4.722;2022-12-13T04:48:28;-1.50;99.90
14555;DHT22;7364;50.870;4.722;2022-12-13T04:50:58;-1.50;99.90
14555;DHT22;7364;50.870;4.722;2022-12-13T04:53:26;-1.40;99.90
14555;DHT22;7364;50.870;4.722;2022-12-13T04:55:53;-1.60;99.90
14555;DHT22;7364;50.870;4.722;2022-12-13T04:58:21;-1.70;99.90
14555;DHT22;7364;50.870;4.722;2022-12-13T05:00:49;-1.50;99.90
14555;DHT22;7364;50.870;4.722;2022-12-13T05:03:17;-1.40;99.90
14555;DHT22;7364;50.870;4.722;2022-12-13T05:05:44;-1.50;99.90
14555;DHT22;7364;50.870;4.722;2022-12-13T05:08:11;-1.50;99.90
14555;DHT22;7364;50.870;4.722;2022-12-13T05:10:38;-1.50;99.90
14555;DHT22;7364;50.870;4.722;2022-12-13T05:13:06;-1.60;99.90
14555;DHT22;7364;50.870;4.722;2022-12-13T05:15:33;-1.90;99.90
14555;DHT22;7364;50.870;4.722;2022-12-13T05:18:03;-1.80;99.90
14555;DHT22;7364;50.870;4.722;2022-12-13T05:20:33;-1.70;99.90
14555;DHT22;7364;50.870;4.722;2022-12-13T05:23:00;-1.70;99.90
14555;DHT22;7364;50.870;4.722;2022-12-13T05:25:28;-1.70;99.90
14555;DHT22;7364;50.870;4.722;2022-12-13T05:27:55;-1.60;99.90
14555;DHT22;7364;50.870;4.722;2022-12-13T05:30:23;-1.60;99.90
14555;DHT22;7364;50.870;4.722;2022-12-13T05:32:50;-1.60;99.90
14555;DHT22;7364;50.870;4.722;2022-12-13T05:35:19;-1.60;99.90
14555;DHT22;7364;50.870;4.722;2022-12-13T05:37:46;-1.60;99.90
14555;DHT22;7364;50.870;4.722;2022-12-13T05:40:14;-1.60;99.90
14555;DHT22;7364;50.870;4.722;2022-12-13T05:42:41;-1.60;99.90
14555;DHT22;7364;50.870;4.722;2022-12-13T05:45:09;-1.70;99.90
14555;DHT22;7364;50.870;4.722;2022-12-13T05:47:38;-1.70;99.90
14555;DHT22;7364;50.870;4.722;2022-12-13T05:50:06;-1.70;99.90
14555;DHT22;7364;50.870;4.722;2022-12-13T05:52:34;-1.80;99.90
14555;DHT22;7364;50.870;4.722;2022-12-13T05:55:02;-1.90;99.90
14555;DHT22;7364;50.870;4.722;2022-12-13T05:57:30;-1.80;99.90
14555;DHT22;7364;50.870;4.722;2022-12-13T05:59:57;-1.90;99.90
14555;DHT22;7364;50.870;4.722;2022-12-13T06:02:24;-1.90;99.90
14555;DHT22;7364;50.870;4.722;2022-12-13T06:04:52;-2.00;99.90
14555;DHT22;7364;50.870;4.722;2022-12-13T06:07:19;-2.20;99.90
14555;DHT22;7364;50.870;4.722;2022-12-13T06:09:48;-2.30;99.90
14555;DHT22;7364;50.870;4.722;2022-12-13T06:12:15;-2.30;99.90
14555;DHT22;7364;50.870;4.722;2022-12-13T06:14:42;-2.20;99.90
14555;DHT22;7364;50.870;4.722;2022-12-13T06:17:09;-2.10;99.90
14555;DHT22;7364;50.870;4.722;2022-12-13T06:19:36;-2.10;99.90
14555;DHT22;7364;50.870;4.722;2022-12-13T06:22:04;-1.90;99.90
14555;DHT22;7364;50.870;4.722;2022-12-13T06:24:31;-2.00;99.90
14555;DHT22;7364;50.870;4.722;2022-12-13T06:27:00;-1.90;99.90
14555;DHT22;7364;50.870;4.722;2022-12-13T06:29:27;-1.80;99.90
14555;DHT22;7364;50.870;4.722;2022-12-13T06:31:56;-1.90;99.90
14555;DHT22;7364;50.870;4.722;2022-12-13T06:34:24;-2.10;99.90
14555;DHT22;7364;50.870;4.722;2022-12-13T06:36:51;-2.00;99.90
14555;DHT22;7364;50.870;4.722;2022-12-13T06:39:18;-2.00;99.90
14555;DHT22;7364;50.870;4.722;2022-12-13T06:41:46;-1.90;99.90
14555;DHT22;7364;50.870;4.722;2022-12-13T06:44:14;-1.90;99.90
14555;DHT22;7364;50.870;4.722;2022-12-13T06:46:43;-2.00;99.90
14555;DHT22;7364;50.870;4.722;2022-12-13T06:49:10;-2.20;99.90
14555;DHT22;7364;50.870;4.722;2022-12-13T06:51:37;-2.20;99.90
14555;DHT22;7364;50.870;4.722;2022-12-13T06:54:05;-2.10;99.90
14555;DHT22;7364;50.870;4.722;2022-12-13T06:56:32;-2.10;99.90
14555;DHT22;7364;50.870;4.722;2022-12-13T06:58:59;-2.20;99.90
14555;DHT22;7364;50.870;4.722;2022-12-13T07:01:29;-2.30;99.90
14555;DHT22;7364;50.870;4.722;2022-12-13T07:03:56;-2.30;99.90
14555;DHT22;7364;50.870;4.722;2022-12-13T07:06:25;-2.30;99.90
14555;DHT22;7364;50.870;4.722;2022-12-13T07:08:53;-2.30;99.90
14555;DHT22;7364;50.870;4.722;2022-12-13T07:11:22;-2.10;99.90
14555;DHT22;7364;50.870;4.722;2022-12-13T07:13:50;-2.10;99.90
14555;DHT22;7364;50.870;4.722;2022-12-13T07:16:18;-2.00;99.90
14555;DHT22;7364;50.870;4.722;2022-12-13T07:18:47;-2.10;99.90
14555;DHT22;7364;50.870;4.722;2022-12-13T07:21:14;-2.10;99.90
14555;DHT22;7364;50.870;4.722;2022-12-13T07:23:42;-2.10;99.90
14555;DHT22;7364;50.870;4.722;2022-12-13T07:26:09;-2.30;99.90
14555;DHT22;7364;50.870;4.722;2022-12-13T07:28:37;-2.40;99.90
14555;DHT22;7364;50.870;4.722;2022-12-13T07:31:06;-2.50;99.90
14555;DHT22;7364;50.870;4.722;2022-12-13T07:33:35;-2.60;99.90
14555;DHT22;7364;50.870;4.722;2022-12-13T07:36:05;-2.50;99.90
14555;DHT22;7364;50.870;4.722;2022-12-13T07:38:34;-2.20;99.90
14555;DHT22;7364;50.870;4.722;2022-12-13T07:41:03;-2.00;99.90
14555;DHT22;7364;50.870;4.722;2022-12-13T07:43:31;-2.00;99.90
14555;DHT22;7364;50.870;4.722;2022-12-13T07:46:00;-2.00;99.90
14555;DHT22;7364;50.870;4.722;2022-12-13T07:48:28;-1.90;99.90
14555;DHT22;7364;50.870;4.722;2022-12-13T07:51:01;-1.90;99.90
14555;DHT22;7364;50.870;4.722;2022-12-13T07:53:30;-1.90;99.90
14555;DHT22;7364;50.870;4.722;2022-12-13T07:56:00;-1.90;99.90
14555;DHT22;7364;50.870;4.722;2022-12-13T07:58:28;-2.00;99.90
14555;DHT22;7364;50.870;4.722;2022-12-13T08:00:59;-2.30;99.90
14555;DHT22;7364;50.870;4.722;2022-12-13T08:03:27;-2.60;99.90
14555;DHT22;7364;50.870;4.722;2022-12-13T08:05:59;-2.50;99.90
14555;DHT22;7364;50.870;4.722;2022-12-13T08:08:26;-2.30;99.90
14555;DHT22;7364;50.870;4.722;2022-12-13T08:11:00;-2.20;99.90
14555;DHT22;7364;50.870;4.722;2022-12-13T08:13:28;-2.10;99.90
14555;DHT22;7364;50.870;4.722;2022-12-13T08:15:59;-2.00;99.90
14555;DHT22;7364;50.870;4.722;2022-12-13T08:18:27;-1.90;99.90
14555;DHT22;7364;50.870;4.722;2022-12-13T08:20:57;-2.00;99.90
14555;DHT22;7364;50.870;4.722;2022-12-13T08:23:26;-1.80;99.90
14555;DHT22;7364;50.870;4.722;2022-12-13T08:25:55;-1.80;99.90
14555;DHT22;7364;50.870;4.722;2022-12-13T08:28:23;-1.60;99.90
14555;DHT22;7364;50.870;4.722;2022-12-13T08:30:51;-1.60;99.90
14555;DHT22;7364;50.870;4.722;2022-12-13T08:33:19;-1.50;99.90
14555;DHT22;7364;50.870;4.722;2022-12-13T08:35:47;-1.50;99.90
14555;DHT22;7364;50.870;4.722;2022-12-13T08:38:15;-1.30;99.90
14555;DHT22;7364;50.870;4.722;2022-12-13T08:40:42;-1.10;99.90
14555;DHT22;7364;50.870;4.722;2022-12-13T08:43:11;-0.90;99.90
14555;DHT22;7364;50.870;4.722;2022-12-13T08:45:38;-0.90;99.90
14555;DHT22;7364;50.870;4.722;2022-12-13T08:48:07;-0.70;99.90
14555;DHT22;7364;50.870;4.722;2022-12-13T08:50:35;-0.40;99.90
14555;DHT22;7364;50.870;4.722;2022-12-13T08:53:03;-0.10;99.90
14555;DHT22;7364;50.870;4.722;2022-12-13T08:55:30;0.10;99.90
14555;DHT22;7364;50.870;4.722;2022-12-13T08:57:58;0.30;99.90
14555;DHT22;7364;50.870;4.722;2022-12-13T09:00:27;0.30;99.90
14555;DHT22;7364;50.870;4.722;2022-12-13T09:02:55;0.50;99.90
14555;DHT22;7364;50.870;4.722;2022-12-13T09:05:23;0.70;99.90
14555;DHT22;7364;50.870;4.722;2022-12-13T09:07:54;0.80;99.90
14555;DHT22;7364;50.870;4.722;2022-12-13T09:10:25;1.00;99.90
14555;DHT22;7364;50.870;4.722;2022-12-13T09:12:53;1.20;99.90
14555;DHT22;7364;50.870;4.722;2022-12-13T09:15:21;1.40;99.90
14555;DHT22;7364;50.870;4.722;2022-12-13T09:17:50;1.80;99.90
14555;DHT22;7364;50.870;4.722;2022-12-13T09:20:17;2.20;99.90
14555;DHT22;7364;50.870;4.722;2022-12-13T09:22:45;2.60;99.90
14555;DHT22;7364;50.870;4.722;2022-12-13T09:25:12;2.90;99.90
14555;DHT22;7364;50.870;4.722;2022-12-13T09:27:40;3.00;99.90
14555;DHT22;7364;50.870;4.722;2022-12-13T09:30:09;3.10;99.90
14555;DHT22;7364;50.870;4.722;2022-12-13T09:32:38;3.00;99.90
14555;DHT22;7364;50.870;4.722;2022-12-13T09:35:08;3.10;99.90
14555;DHT22;7364;50.870;4.722;2022-12-13T09:37:35;2.90;99.90
14555;DHT22;7364;50.870;4.722;2022-12-13T09:40:17;2.90;99.90
14555;DHT22;7364;50.870;4.722;2022-12-13T09:43:04;3.10;99.90
14555;DHT22;7364;50.870;4.722;2022-12-13T09:45:47;3.50;99.90
14555;DHT22;7364;50.870;4.722;2022-12-13T09:48:34;3.80;99.90
14555;DHT22;7364;50.870;4.722;2022-12-13T09:51:08;3.80;99.90
14555;DHT22;7364;50.870;4.722;2022-12-13T09:53:47;3.70;99.90
14555;DHT22;7364;50.870;4.722;2022-12-13T09:56:27;3.40;99.90
14555;DHT22;7364;50.870;4.722;2022-12-13T09:58:57;3.30;99.90
14555;DHT22;7364;50.870;4.722;2022-12-13T10:01:25;3.20;99.90
14555;DHT22;7364;50.870;4.722;2022-12-13T10:03:55;3.20;99.90
14555;DHT22;7364;50.870;4.722;2022-12-13T10:06:28;3.30;99.90
14555;DHT22;7364;50.870;4.722;2022-12-13T10:08:59;3.40;99.90
14555;DHT22;7364;50.870;4.722;2022-12-13T10:11:30;3.50;99.90
14555;DHT22;7364;50.870;4.722;2022-12-13T10:14:01;3.50;99.90
14555;DHT22;7364;50.870;4.722;2022-12-13T10:16:39;3.50;99.90
14555;DHT22;7364;50.870;4.722;2022-12-13T10:19:15;3.80;99.90
14555;DHT22;7364;50.870;4.722;2022-12-13T10:21:51;4.00;99.90
14555;DHT22;7364;50.870;4.722;2022-12-13T10:24:21;4.40;99.90
14555;DHT22;7364;50.870;4.722;2022-12-13T10:26:50;4.80;99.90
14555;DHT22;7364;50.870;4.722;2022-12-13T10:29:18;5.10;99.90
14555;DHT22;7364;50.870;4.722;2022-12-13T10:31:50;5.30;99.30
14555;DHT22;7364;50.870;4.722;2022-12-13T10:34:23;5.60;98.70
14555;DHT22;7364;50.870;4.722;2022-12-13T10:36:53;5.90;98.00
14555;DHT22;7364;50.870;4.722;2022-12-13T10:39:36;6.00;97.70
14555;DHT22;7364;50.870;4.722;2022-12-13T10:42:09;6.20;97.40
14555;DHT22;7364;50.870;4.722;2022-12-13T10:44:38;6.30;96.90
14555;DHT22;7364;50.870;4.722;2022-12-13T10:47:14;6.20;96.70
14555;DHT22;7364;50.870;4.722;2022-12-13T10:49:48;6.50;96.60
14555;DHT22;7364;50.870;4.722;2022-12-13T10:52:27;6.40;96.40
14555;DHT22;7364;50.870;4.722;2022-12-13T10:54:56;6.00;96.60
14555;DHT22;7364;50.870;4.722;2022-12-13T10:57:25;5.90;97.00
14555;DHT22;7364;50.870;4.722;2022-12-13T10:59:52;6.20;96.10
14555;DHT22;7364;50.870;4.722;2022-12-13T11:02:30;6.70;95.30
14555;DHT22;7364;50.870;4.722;2022-12-13T11:04:58;7.10;94.90
14555;DHT22;7364;50.870;4.722;2022-12-13T11:07:29;7.30;94.30
14555;DHT22;7364;50.870;4.722;2022-12-13T11:10:14;7.40;94.20
14555;DHT22;7364;50.870;4.722;2022-12-13T11:12:41;7.70;93.50
14555;DHT22;7364;50.870;4.722;2022-12-13T11:15:16;7.90;93.20
14555;DHT22;7364;50.870;4.722;2022-12-13T11:17:47;8.10;92.90
14555;DHT22;7364;50.870;4.722;2022-12-13T11:20:18;7.90;92.90
14555;DHT22;7364;50.870;4.722;2022-12-13T11:22:58;8.20;92.80
14555;DHT22;7364;50.870;4.722;2022-12-13T11:25:32;8.30;92.20
14555;DHT22;7364;50.870;4.722;2022-12-13T11:28:08;8.70;91.90
14555;DHT22;7364;50.870;4.722;2022-12-13T11:30:45;8.90;90.80
14555;DHT22;7364;50.870;4.722;2022-12-13T11:33:25;9.00;90.50
14555;DHT22;7364;50.870;4.722;2022-12-13T11:36:04;8.90;89.80
14555;DHT22;7364;50.870;4.722;2022-12-13T11:38:48;8.50;90.40
14555;DHT22;7364;50.870;4.722;2022-12-13T11:41:23;7.90;90.30
14555;DHT22;7364;50.870;4.722;2022-12-13T11:43:55;8.00;89.80
14555;DHT22;7364;50.870;4.722;2022-12-13T11:46:33;7.40;90.60
14555;DHT22;7364;50.870;4.722;2022-12-13T11:49:08;6.70;91.90
14555;DHT22;7364;50.870;4.722;2022-12-13T11:51:40;6.50;91.80
14555;DHT22;7364;50.870;4.722;2022-12-13T11:54:16;6.50;91.20
14555;DHT22;7364;50.870;4.722;2022-12-13T11:56:46;6.40;91.30
14555;DHT22;7364;50.870;4.722;2022-12-13T11:59:23;6.30;91.40
14555;DHT22;7364;50.870;4.722;2022-12-13T12:01:57;5.80;92.30
14555;DHT22;7364;50.870;4.722;2022-12-13T12:04:34;5.90;92.20
14555;DHT22;7364;50.870;4.722;2022-12-13T12:07:09;5.70;92.70
14555;DHT22;7364;50.870;4.722;2022-12-13T12:09:42;5.50;93.10
14555;DHT22;7364;50.870;4.722;2022-12-13T12:12:18;5.60;93.00
14555;DHT22;7364;50.870;4.722;2022-12-13T12:14:52;5.50;93.50
14555;DHT22;7364;50.870;4.722;2022-12-13T12:17:22;5.20;94.00
14555;DHT22;7364;50.870;4.722;2022-12-13T12:19:52;5.40;93.70
14555;DHT22;7364;50.870;4.722;2022-12-13T12:22:28;5.60;93.00
14555;DHT22;7364;50.870;4.722;2022-12-13T12:25:11;5.50;93.30
14555;DHT22;7364;50.870;4.722;2022-12-13T12:27:47;5.50;93.30
14555;DHT22;7364;50.870;4.722;2022-12-13T12:30:22;5.50;93.50
14555;DHT22;7364;50.870;4.722;2022-12-13T12:32:55;5.40;94.00
14555;DHT22;7364;50.870;4.722;2022-12-13T12:35:50;5.40;94.30
14555;DHT22;7364;50.870;4.722;2022-12-13T12:38:43;5.60;94.20
14555;DHT22;7364;50.870;4.722;2022-12-13T12:41:26;5.80;93.60
14555;DHT22;7364;50.870;4.722;2022-12-13T12:44:03;5.50;94.10
14555;DHT22;7364;50.870;4.722;2022-12-13T12:46:45;5.60;94.30
14555;DHT22;7364;50.870;4.722;2022-12-13T12:52:31;5.40;94.60
14555;DHT22;7364;50.870;4.722;2022-12-13T12:55:10;5.40;94.40
14555;DHT22;7364;50.870;4.722;2022-12-13T12:57:50;5.70;94.10
14555;DHT22;7364;50.870;4.722;2022-12-13T13:00:22;5.50;94.40
14555;DHT22;7364;50.870;4.722;2022-12-13T13:02:57;5.30;94.60
14555;DHT22;7364;50.870;4.722;2022-12-13T13:05:31;5.00;95.10
14555;DHT22;7364;50.870;4.722;2022-12-13T13:08:03;5.10;94.90
14555;DHT22;7364;50.870;4.722;2022-12-13T13:10:32;5.20;94.90
14555;DHT22;7364;50.870;4.722;2022-12-13T13:13:01;5.00;95.10
14555;DHT22;7364;50.870;4.722;2022-12-13T13:15:52;4.90;95.80
14555;DHT22;7364;50.870;4.722;2022-12-13T13:21:42;4.90;95.80
14555;DHT22;7364;50.870;4.722;2022-12-13T13:24:28;4.90;95.60
14555;DHT22;7364;50.870;4.722;2022-12-13T13:26:57;4.80;96.10
14555;DHT22;7364;50.870;4.722;2022-12-13T13:29:32;4.90;95.90
14555;DHT22;7364;50.870;4.722;2022-12-13T13:32:02;5.10;95.80
14555;DHT22;7364;50.870;4.722;2022-12-13T13:34:32;5.10;95.90
14555;DHT22;7364;50.870;4.722;2022-12-13T13:37:01;5.10;96.00
14555;DHT22;7364;50.870;4.722;2022-12-13T13:39:56;5.10;95.90
14555;DHT22;7364;50.870;4.722;2022-12-13T13:42:24;5.10;95.80
14555;DHT22;7364;50.870;4.722;2022-12-13T13:45:21;5.00;96.00
14555;DHT22;7364;50.870;4.722;2022-12-13T13:48:10;5.00;96.30
14555;DHT22;7364;50.870;4.722;2022-12-13T13:54:18;4.60;97.00
14555;DHT22;7364;50.870;4.722;2022-12-13T14:00:28;4.80;97.00
14555;DHT22;7364;50.870;4.722;2022-12-13T14:21:32;4.60;99.10
14555;DHT22;7364;50.870;4.722;2022-12-13T14:24:13;4.60;98.70
14555;DHT22;7364;50.870;4.722;2022-12-13T14:26:50;4.70;98.60
14555;DHT22;7364;50.870;4.722;2022-12-13T14:29:26;4.40;99.00
14555;DHT22;7364;50.870;4.722;2022-12-13T14:31:58;4.20;99.40
14555;DHT22;7364;50.870;4.722;2022-12-13T14:34:27;4.30;99.40
14555;DHT22;7364;50.870;4.722;2022-12-13T14:36:58;4.20;99.30
14555;DHT22;7364;50.870;4.722;2022-12-13T14:39:26;4.40;99.30
14555;DHT22;7364;50.870;4.722;2022-12-13T14:41:58;4.40;99.10
14555;DHT22;7364;50.870;4.722;2022-12-13T14:44:27;4.40;99.10
14555;DHT22;7364;50.870;4.722;2022-12-13T14:46:58;4.20;99.30
14555;DHT22;7364;50.870;4.722;2022-12-13T14:49:28;3.90;99.90
14555;DHT22;7364;50.870;4.722;2022-12-13T14:52:03;3.80;99.90
14555;DHT22;7364;50.870;4.722;2022-12-13T14:54:39;3.90;99.90
14555;DHT22;7364;50.870;4.722;2022-12-13T14:57:14;3.90;99.90
14555;DHT22;7364;50.870;4.722;2022-12-13T14:59:44;3.90;99.90
14555;DHT22;7364;50.870;4.722;2022-12-13T15:02:15;4.10;99.90
14555;DHT22;7364;50.870;4.722;2022-12-13T15:04:43;3.90;99.90
14555;DHT22;7364;50.870;4.722;2022-12-13T15:07:20;3.80;99.90
14555;DHT22;7364;50.870;4.722;2022-12-13T15:09:52;3.70;99.90
14555;DHT22;7364;50.870;4.722;2022-12-13T15:12:21;3.50;99.90
14555;DHT22;7364;50.870;4.722;2022-12-13T15:14:52;3.40;99.90
14555;DHT22;7364;50.870;4.722;2022-12-13T15:17:28;3.40;99.90
14555;DHT22;7364;50.870;4.722;2022-12-13T15:19:56;3.30;99.90
14555;DHT22;7364;50.870;4.722;2022-12-13T15:22:24;3.20;99.90
14555;DHT22;7364;50.870;4.722;2022-12-13T15:24:52;3.00;99.90
14555;DHT22;7364;50.870;4.722;2022-12-13T15:27:23;3.00;99.90
14555;DHT22;7364;50.870;4.722;2022-12-13T15:29:51;2.90;99.90
14555;DHT22;7364;50.870;4.722;2022-12-13T15:32:20;2.90;99.90
14555;DHT22;7364;50.870;4.722;2022-12-13T15:34:48;2.80;99.90
14555;DHT22;7364;50.870;4.722;2022-12-13T15:37:21;2.90;99.90
14555;DHT22;7364;50.870;4.722;2022-12-13T15:39:54;3.00;99.90
14555;DHT22;7364;50.870;4.722;2022-12-13T15:42:27;2.90;99.90
14555;DHT22;7364;50.870;4.722;2022-12-13T15:44:58;2.80;99.90
14555;DHT22;7364;50.870;4.722;2022-12-13T15:47:28;2.50;99.90
14555;DHT22;7364;50.870;4.722;2022-12-13T15:49:57;2.50;99.90
14555;DHT22;7364;50.870;4.722;2022-12-13T15:52:34;2.30;99.90
14555;DHT22;7364;50.870;4.722;2022-12-13T15:55:25;2.50;99.90
14555;DHT22;7364;50.870;4.722;2022-12-13T15:57:57;2.50;99.90
14555;DHT22;7364;50.870;4.722;2022-12-13T16:00:26;2.50;99.90
14555;DHT22;7364;50.870;4.722;2022-12-13T16:02:56;2.50;99.90
14555;DHT22;7364;50.870;4.722;2022-12-13T16:05:28;2.50;99.90
14555;DHT22;7364;50.870;4.722;2022-12-13T16:07:59;2.40;99.90
14555;DHT22;7364;50.870;4.722;2022-12-13T16:10:29;2.40;99.90
14555;DHT22;7364;50.870;4.722;2022-12-13T16:12:59;2.50;99.90
14555;DHT22;7364;50.870;4.722;2022-12-13T16:15:29;2.30;99.90
14555;DHT22;7364;50.870;4.722;2022-12-13T16:18:06;2.40;99.90
14555;DHT22;7364;50.870;4.722;2022-12-13T16:20:38;2.50;99.90
14555;DHT22;7364;50.870;4.722;2022-12-13T16:23:08;2.50;99.90
14555;DHT22;7364;50.870;4.722;2022-12-13T16:25:37;2.40;99.90
14555;DHT22;7364;50.870;4.722;2022-12-13T16:28:05;2.30;99.90
14555;DHT22;7364;50.870;4.722;2022-12-13T16:30:57;2.30;99.90
14555;DHT22;7364;50.870;4.722;2022-12-13T16:33:26;2.20;99.90
14555;DHT22;7364;50.870;4.722;2022-12-13T16:35:55;2.40;99.90
14555;DHT22;7364;50.870;4.722;2022-12-13T16:38:22;2.20;99.90
14555;DHT22;7364;50.870;4.722;2022-12-13T16:40:54;2.10;99.90
14555;DHT22;7364;50.870;4.722;2022-12-13T16:43:24;2.10;99.90
14555;DHT22;7364;50.870;4.722;2022-12-13T16:45:53;1.90;99.90
14555;DHT22;7364;50.870;4.722;2022-12-13T16:48:21;1.90;99.90
14555;DHT22;7364;50.870;4.722;2022-12-13T16:50:51;2.00;99.90
14555;DHT22;7364;50.870;4.722;2022-12-13T16:53:18;2.00;99.90
14555;DHT22;7364;50.870;4.722;2022-12-13T16:55:46;1.90;99.90
14555;DHT22;7364;50.870;4.722;2022-12-13T16:58:16;1.90;99.90
14555;DHT22;7364;50.870;4.722;2022-12-13T17:00:44;2.10;99.90